sensor_id;sensor_type;location;lat;lon;timestamp;pressure;altitude;pressure_sealevel;temperature;humidity
23635;BME280;11994;51.038;16.974;2023-02-13T00:01:54;102222.09;;;6.73;88.83
23635;BME280;11994;51.038;16.974;2023-02-13T00:04:20;102222.44;;;6.73;88.98
23635;BME280;11994;51.038;16.974;2023-02-13T00:06:45;102227.01;;;6.74;88.70
23635;BME280;11994;51.038;16.974;2023-02-13T00:09:12;102223.41;;;6.76;88.64
23635;BME280;11994;51.038;16.974;2023-02-13T00:11:37;102222.85;;;6.75;88.60
23635;BME280;11994;51.038;16.974;2023-02-13T00:14:03;102222.30;;;6.75;88.54
23635;BME280;11994;51.038;16.974;2023-02-13T00:16:28;102217.77;;;6.74;88.40
23635;BME280;11994;51.038;16.974;2023-02-13T00:18:53;102216.20;;;6.74;88.22
23635;BME280;11994;51.038;16.974;2023-02-13T00:21:19;102211.66;;;6.73;88.19
23635;BME280;11994;51.038;16.974;2023-02-13T00:23:45;102213.20;;;6.72;88.20
23635;BME280;11994;51.038;16.974;2023-02-13T00:26:14;102212.90;;;6.74;88.04
23635;BME280;11994;51.038;16.974;2023-02-13T00:28:39;102208.46;;;6.77;88.08
23635;BME280;11994;51.038;16.974;2023-02-13T00:31:10;102207.96;;;6.78;88.05
23635;BME280;11994;51.038;16.974;2023-02-13T00:33:35;102206.55;;;6.76;87.87
23635;BME280;11994;51.038;16.974;2023-02-13T00:36:09;102207.76;;;6.76;87.83
23635;BME280;11994;51.038;16.974;2023-02-13T00:38:36;102204.61;;;6.76;87.77
23635;BME280;11994;51.038;16.974;2023-02-13T00:41:02;102206.53;;;6.76;87.74
23635;BME280;11994;51.038;16.974;2023-02-13T00:43:28;102209.53;;;6.78;87.65
23635;BME280;11994;51.038;16.974;2023-02-13T00:45:53;102212.69;;;6.79;87.56
23635;BME280;11994;51.038;16.974;2023-02-13T00:48:19;102208.88;;;6.80;87.48
23635;BME280;11994;51.038;16.974;2023-02-13T00:50:46;102209.73;;;6.80;87.31
23635;BME280;11994;51.038;16.974;2023-02-13T00:53:11;102205.20;;;6.79;87.43
23635;BME280;11994;51.038;16.974;2023-02-13T00:55:37;102204.88;;;6.79;87.26
23635;BME280;11994;51.038;16.974;2023-02-13T00:58:02;102205.89;;;6.78;87.27
23635;BME280;11994;51.038;16.974;2023-02-13T01:00:27;102202.55;;;6.77;87.13
23635;BME280;11994;51.038;16.974;2023-02-13T01:02:53;102205.39;;;6.79;87.13
23635;BME280;11994;51.038;16.974;2023-02-13T01:05:18;102206.48;;;6.82;87.08
23635;BME280;11994;51.038;16.974;2023-02-13T01:07:43;102205.28;;;6.82;86.99
23635;BME280;11994;51.038;16.974;2023-02-13T01:10:09;102206.19;;;6.83;86.96
23635;BME280;11994;51.038;16.974;2023-02-13T01:12:34;102212.28;;;6.84;87.03
23635;BME280;11994;51.038;16.974;2023-02-13T01:15:00;102211.96;;;6.85;86.93
23635;BME280;11994;51.038;16.974;2023-02-13T01:17:25;102213.72;;;6.86;86.84
23635;BME280;11994;51.038;16.974;2023-02-13T01:19:51;102209.71;;;6.85;86.87
23635;BME280;11994;51.038;16.974;2023-02-13T01:22:16;102204.52;;;6.86;86.89
23635;BME280;11994;51.038;16.974;2023-02-13T01:24:41;102203.55;;;6.89;86.87
23635;BME280;11994;51.038;16.974;2023-02-13T01:27:07;102205.36;;;6.93;86.80
23635;BME280;11994;51.038;16.974;2023-02-13T01:29:32;102206.42;;;6.94;86.76
23635;BME280;11994;51.038;16.974;2023-02-13T01:31:57;102203.17;;;6.95;86.88
23635;BME280;11994;51.038;16.974;2023-02-13T01:34:23;102205.86;;;6.99;86.90
23635;BME280;11994;51.038;16.974;2023-02-13T01:36:48;102205.89;;;6.99;86.66
23635;BME280;11994;51.038;16.974;2023-02-13T01:39:14;102205.40;;;6.94;86.48
23635;BME280;11994;51.038;16.974;2023-02-13T01:41:39;102205.38;;;6.94;86.54
23635;BME280;11994;51.038;16.974;2023-02-13T01:47:08;102201.13;;;6.98;86.44
23635;BME280;11994;51.038;16.974;2023-02-13T01:49:34;102200.45;;;6.98;86.45
23635;BME280;11994;51.038;16.974;2023-02-13T01:52:01;102204.41;;;6.97;86.36
23635;BME280;11994;51.038;16.974;2023-02-13T01:54:29;102203.98;;;6.93;86.31
23635;BME280;11994;51.038;16.974;2023-02-13T01:57:21;102197.84;;;6.90;86.34
23635;BME280;11994;51.038;16.974;2023-02-13T01:59:47;102195.51;;;6.87;86.25
23635;BME280;11994;51.038;16.974;2023-02-13T02:02:14;102188.86;;;6.86;86.41
23635;BME280;11994;51.038;16.974;2023-02-13T02:04:40;102181.64;;;6.90;86.35
23635;BME280;11994;51.038;16.974;2023-02-13T02:07:14;102186.09;;;6.87;86.14
23635;BME280;11994;51.038;16.974;2023-02-13T02:09:43;102187.91;;;6.83;86.01
23635;BME280;11994;51.038;16.974;2023-02-13T02:14:42;102180.11;;;6.84;86.12
23635;BME280;11994;51.038;16.974;2023-02-13T02:17:08;102173.33;;;6.84;86.07
23635;BME280;11994;51.038;16.974;2023-02-13T02:27:22;102179.88;;;6.81;86.11
23635;BME280;11994;51.038;16.974;2023-02-13T02:30:37;102182.54;;;6.83;86.05
23635;BME280;11994;51.038;16.974;2023-02-13T02:33:20;102180.13;;;6.85;86.06
23635;BME280;11994;51.038;16.974;2023-02-13T02:44:31;102180.02;;;6.80;86.02
23635;BME280;11994;51.038;16.974;2023-02-13T02:47:18;102179.85;;;6.80;86.05
23635;BME280;11994;51.038;16.974;2023-02-13T02:52:58;102170.54;;;6.83;86.05
23635;BME280;11994;51.038;16.974;2023-02-13T02:59:14;102173.54;;;6.86;86.21
23635;BME280;11994;51.038;16.974;2023-02-13T03:01:57;102173.08;;;6.87;86.34
23635;BME280;11994;51.038;16.974;2023-02-13T03:04:45;102177.63;;;6.89;86.25
23635;BME280;11994;51.038;16.974;2023-02-13T03:07:31;102177.48;;;6.90;86.26
23635;BME280;11994;51.038;16.974;2023-02-13T03:10:00;102175.30;;;6.94;86.42
23635;BME280;11994;51.038;16.974;2023-02-13T03:12:55;102176.05;;;6.96;86.20
23635;BME280;11994;51.038;16.974;2023-02-13T03:15:45;102175.45;;;6.93;86.26
23635;BME280;11994;51.038;16.974;2023-02-13T03:18:33;102171.52;;;6.96;86.32
23635;BME280;11994;51.038;16.974;2023-02-13T03:24:52;102163.13;;;6.94;86.13
23635;BME280;11994;51.038;16.974;2023-02-13T03:27:56;102161.76;;;6.87;86.01
23635;BME280;11994;51.038;16.974;2023-02-13T03:30:59;102161.96;;;6.89;86.27
23635;BME280;11994;51.038;16.974;2023-02-13T03:33:39;102167.95;;;6.92;86.37
23635;BME280;11994;51.038;16.974;2023-02-13T03:36:24;102167.66;;;6.94;86.44
23635;BME280;11994;51.038;16.974;2023-02-13T03:39:38;102171.34;;;6.96;86.38
23635;BME280;11994;51.038;16.974;2023-02-13T03:42:11;102170.41;;;6.93;86.44
23635;BME280;11994;51.038;16.974;2023-02-13T03:44:47;102178.76;;;6.93;86.39
23635;BME280;11994;51.038;16.974;2023-02-13T03:47:35;102178.05;;;6.92;86.48
23635;BME280;11994;51.038;16.974;2023-02-13T03:50:02;102172.10;;;6.91;86.48
23635;BME280;11994;51.038;16.974;2023-02-13T03:55:13;102179.16;;;6.88;86.56
23635;BME280;11994;51.038;16.974;2023-02-13T03:58:05;102177.39;;;6.94;86.95
23635;BME280;11994;51.038;16.974;2023-02-13T04:00:53;102174.27;;;6.94;87.02
23635;BME280;11994;51.038;16.974;2023-02-13T04:03:27;102171.05;;;6.90;86.97
23635;BME280;11994;51.038;16.974;2023-02-13T04:05:57;102178.02;;;6.84;87.00
23635;BME280;11994;51.038;16.974;2023-02-13T04:08:25;102182.54;;;6.77;87.18
23635;BME280;11994;51.038;16.974;2023-02-13T04:11:16;102177.92;;;6.73;87.38
23635;BME280;11994;51.038;16.974;2023-02-13T04:13:55;102177.89;;;6.71;87.56
23635;BME280;11994;51.038;16.974;2023-02-13T04:16:28;102174.07;;;6.64;87.86
23635;BME280;11994;51.038;16.974;2023-02-13T04:18:55;102172.98;;;6.62;88.16
23635;BME280;11994;51.038;16.974;2023-02-13T04:21:22;102166.15;;;6.60;88.38
23635;BME280;11994;51.038;16.974;2023-02-13T04:23:48;102169.93;;;6.59;88.66
23635;BME280;11994;51.038;16.974;2023-02-13T04:26:16;102173.00;;;6.56;88.87
23635;BME280;11994;51.038;16.974;2023-02-13T04:28:43;102165.88;;;6.56;89.03
23635;BME280;11994;51.038;16.974;2023-02-13T04:31:08;102160.23;;;6.59;89.26
23635;BME280;11994;51.038;16.974;2023-02-13T04:33:33;102161.16;;;6.62;89.58
23635;BME280;11994;51.038;16.974;2023-02-13T04:35:59;102156.98;;;6.62;89.45
23635;BME280;11994;51.038;16.974;2023-02-13T04:38:24;102158.22;;;6.63;89.76
23635;BME280;11994;51.038;16.974;2023-02-13T04:40:49;102164.77;;;6.68;89.79
23635;BME280;11994;51.038;16.974;2023-02-13T04:43:15;102161.95;;;6.74;89.96
23635;BME280;11994;51.038;16.974;2023-02-13T04:45:40;102164.55;;;6.80;89.98
23635;BME280;11994;51.038;16.974;2023-02-13T04:48:05;102167.05;;;6.83;89.98
23635;BME280;11994;51.038;16.974;2023-02-13T04:50:31;102165.86;;;6.84;90.14
23635;BME280;11994;51.038;16.974;2023-02-13T04:52:57;102163.96;;;6.85;90.13
23635;BME280;11994;51.038;16.974;2023-02-13T04:55:23;102163.27;;;6.86;90.26
23635;BME280;11994;51.038;16.974;2023-02-13T04:57:53;102166.02;;;6.92;90.41
23635;BME280;11994;51.038;16.974;2023-02-13T05:00:21;102159.90;;;6.97;90.30
23635;BME280;11994;51.038;16.974;2023-02-13T05:02:46;102156.66;;;7.00;90.24
23635;BME280;11994;51.038;16.974;2023-02-13T05:05:11;102150.05;;;7.00;90.15
23635;BME280;11994;51.038;16.974;2023-02-13T05:07:37;102148.54;;;7.03;90.29
23635;BME280;11994;51.038;16.974;2023-02-13T05:10:03;102148.63;;;7.07;90.25
23635;BME280;11994;51.038;16.974;2023-02-13T05:12:28;102147.83;;;7.02;89.81
23635;BME280;11994;51.038;16.974;2023-02-13T05:14:53;102145.16;;;6.99;89.76
23635;BME280;11994;51.038;16.974;2023-02-13T05:17:19;102144.61;;;6.98;89.92
23635;BME280;11994;51.038;16.974;2023-02-13T05:19:44;102146.05;;;7.01;90.23
23635;BME280;11994;51.038;16.974;2023-02-13T05:22:10;102147.23;;;6.98;90.19
23635;BME280;11994;51.038;16.974;2023-02-13T05:24:54;102150.93;;;6.93;90.09
23635;BME280;11994;51.038;16.974;2023-02-13T05:27:19;102150.67;;;6.90;90.31
23635;BME280;11994;51.038;16.974;2023-02-13T05:29:44;102148.31;;;6.86;90.37
23635;BME280;11994;51.038;16.974;2023-02-13T05:32:10;102149.11;;;6.82;90.22
23635;BME280;11994;51.038;16.974;2023-02-13T05:34:35;102152.15;;;6.78;90.35
23635;BME280;11994;51.038;16.974;2023-02-13T05:37:00;102151.95;;;6.77;90.66
23635;BME280;11994;51.038;16.974;2023-02-13T05:39:26;102153.34;;;6.77;91.04
23635;BME280;11994;51.038;16.974;2023-02-13T05:41:51;102155.35;;;6.74;90.93
23635;BME280;11994;51.038;16.974;2023-02-13T05:44:17;102155.59;;;6.69;91.03
23635;BME280;11994;51.038;16.974;2023-02-13T05:46:42;102152.92;;;6.67;91.16
23635;BME280;11994;51.038;16.974;2023-02-13T05:49:11;102153.95;;;6.66;91.13
23635;BME280;11994;51.038;16.974;2023-02-13T05:51:37;102150.83;;;6.67;91.38
23635;BME280;11994;51.038;16.974;2023-02-13T05:54:03;102155.79;;;6.63;91.31
23635;BME280;11994;51.038;16.974;2023-02-13T05:56:28;102153.98;;;6.60;91.56
23635;BME280;11994;51.038;16.974;2023-02-13T05:58:54;102157.83;;;6.54;91.37
23635;BME280;11994;51.038;16.974;2023-02-13T06:01:21;102157.54;;;6.50;91.51
23635;BME280;11994;51.038;16.974;2023-02-13T06:03:47;102156.98;;;6.48;91.69
23635;BME280;11994;51.038;16.974;2023-02-13T06:06:12;102155.09;;;6.49;91.66
23635;BME280;11994;51.038;16.974;2023-02-13T06:08:38;102155.62;;;6.49;91.95
23635;BME280;11994;51.038;16.974;2023-02-13T06:11:03;102158.41;;;6.49;91.90
23635;BME280;11994;51.038;16.974;2023-02-13T06:13:29;102162.23;;;6.50;92.16
23635;BME280;11994;51.038;16.974;2023-02-13T06:15:54;102166.27;;;6.51;92.02
23635;BME280;11994;51.038;16.974;2023-02-13T06:18:20;102165.08;;;6.53;92.13
23635;BME280;11994;51.038;16.974;2023-02-13T06:20:45;102163.70;;;6.59;92.59
23635;BME280;11994;51.038;16.974;2023-02-13T06:23:11;102169.16;;;6.70;92.46
23635;BME280;11994;51.038;16.974;2023-02-13T06:25:36;102173.61;;;6.74;92.55
23635;BME280;11994;51.038;16.974;2023-02-13T06:28:03;102174.23;;;6.71;92.27
23635;BME280;11994;51.038;16.974;2023-02-13T06:30:29;102176.16;;;6.71;92.18
23635;BME280;11994;51.038;16.974;2023-02-13T06:32:54;102182.21;;;6.77;92.58
23635;BME280;11994;51.038;16.974;2023-02-13T06:35:20;102185.98;;;6.82;92.62
23635;BME280;11994;51.038;16.974;2023-02-13T06:37:45;102192.27;;;6.83;92.45
23635;BME280;11994;51.038;16.974;2023-02-13T06:40:12;102189.27;;;6.81;92.42
23635;BME280;11994;51.038;16.974;2023-02-13T06:42:38;102187.70;;;6.81;92.37
23635;BME280;11994;51.038;16.974;2023-02-13T06:45:03;102189.85;;;6.84;92.52
23635;BME280;11994;51.038;16.974;2023-02-13T06:47:29;102194.59;;;6.86;92.45
23635;BME280;11994;51.038;16.974;2023-02-13T06:49:54;102191.51;;;6.88;92.49
23635;BME280;11994;51.038;16.974;2023-02-13T06:52:20;102193.80;;;6.89;92.59
23635;BME280;11994;51.038;16.974;2023-02-13T06:54:45;102193.73;;;6.94;92.76
23635;BME280;11994;51.038;16.974;2023-02-13T06:57:10;102194.19;;;6.91;92.44
23635;BME280;11994;51.038;16.974;2023-02-13T06:59:36;102196.71;;;6.87;92.39
23635;BME280;11994;51.038;16.974;2023-02-13T07:02:01;102193.45;;;6.89;92.34
23635;BME280;11994;51.038;16.974;2023-02-13T07:04:27;102194.89;;;6.90;92.35
23635;BME280;11994;51.038;16.974;2023-02-13T07:06:55;102191.59;;;6.91;92.36
23635;BME280;11994;51.038;16.974;2023-02-13T07:09:22;102188.39;;;6.88;92.30
23635;BME280;11994;51.038;16.974;2023-02-13T07:11:48;102189.63;;;6.89;92.36
23635;BME280;11994;51.038;16.974;2023-02-13T07:14:13;102188.46;;;6.91;92.54
23635;BME280;11994;51.038;16.974;2023-02-13T07:16:38;102191.69;;;6.88;92.11
23635;BME280;11994;51.038;16.974;2023-02-13T07:19:04;102190.39;;;6.85;92.03
23635;BME280;11994;51.038;16.974;2023-02-13T07:21:29;102189.08;;;6.81;92.03
23635;BME280;11994;51.038;16.974;2023-02-13T07:23:54;102186.36;;;6.76;92.16
23635;BME280;11994;51.038;16.974;2023-02-13T07:26:20;102182.35;;;6.76;92.34
23635;BME280;11994;51.038;16.974;2023-02-13T07:28:45;102179.23;;;6.76;92.31
23635;BME280;11994;51.038;16.974;2023-02-13T07:31:10;102181.59;;;6.80;92.57
23635;BME280;11994;51.038;16.974;2023-02-13T07:33:36;102177.59;;;6.81;92.46
23635;BME280;11994;51.038;16.974;2023-02-13T07:36:02;102181.62;;;6.82;92.47
23635;BME280;11994;51.038;16.974;2023-02-13T07:38:30;102180.82;;;6.84;92.61
23635;BME280;11994;51.038;16.974;2023-02-13T07:41:00;102183.13;;;6.86;92.69
23635;BME280;11994;51.038;16.974;2023-02-13T07:43:25;102183.66;;;6.87;92.76
23635;BME280;11994;51.038;16.974;2023-02-13T07:45:51;102184.61;;;6.90;92.58
23635;BME280;11994;51.038;16.974;2023-02-13T07:48:21;102184.10;;;6.91;92.40
23635;BME280;11994;51.038;16.974;2023-02-13T07:50:46;102177.27;;;6.88;92.42
23635;BME280;11994;51.038;16.974;2023-02-13T07:53:12;102177.25;;;6.88;92.74
23635;BME280;11994;51.038;16.974;2023-02-13T07:55:37;102171.48;;;6.87;92.73
23635;BME280;11994;51.038;16.974;2023-02-13T07:58:04;102171.95;;;6.85;92.73
23635;BME280;11994;51.038;16.974;2023-02-13T08:00:29;102177.23;;;6.87;92.98
23635;BME280;11994;51.038;16.974;2023-02-13T08:02:58;102182.19;;;6.91;93.04
23635;BME280;11994;51.038;16.974;2023-02-13T08:05:23;102183.62;;;6.93;93.21
23635;BME280;11994;51.038;16.974;2023-02-13T08:07:49;102181.05;;;6.94;93.28
23635;BME280;11994;51.038;16.974;2023-02-13T08:10:14;102181.27;;;6.96;93.28
23635;BME280;11994;51.038;16.974;2023-02-13T08:12:58;102179.98;;;6.94;93.45
23635;BME280;11994;51.038;16.974;2023-02-13T08:15:24;102181.06;;;6.95;93.52
23635;BME280;11994;51.038;16.974;2023-02-13T08:17:50;102183.58;;;6.98;93.49
23635;BME280;11994;51.038;16.974;2023-02-13T08:20:15;102187.27;;;7.00;93.71
23635;BME280;11994;51.038;16.974;2023-02-13T08:22:40;102188.50;;;7.00;93.77
23635;BME280;11994;51.038;16.974;2023-02-13T08:25:06;102189.70;;;6.99;93.83
23635;BME280;11994;51.038;16.974;2023-02-13T08:27:32;102188.23;;;6.97;93.99
23635;BME280;11994;51.038;16.974;2023-02-13T08:29:58;102187.73;;;6.97;94.07
23635;BME280;11994;51.038;16.974;2023-02-13T08:32:24;102184.40;;;6.96;94.11
23635;BME280;11994;51.038;16.974;2023-02-13T08:34:50;102184.79;;;6.97;94.25
23635;BME280;11994;51.038;16.974;2023-02-13T08:37:16;102183.76;;;6.99;94.55
23635;BME280;11994;51.038;16.974;2023-02-13T08:39:42;102182.25;;;7.01;94.84
23635;BME280;11994;51.038;16.974;2023-02-13T08:42:07;102182.79;;;7.01;95.14
23635;BME280;11994;51.038;16.974;2023-02-13T08:44:33;102184.19;;;7.02;95.20
23635;BME280;11994;51.038;16.974;2023-02-13T08:46:58;102185.46;;;7.05;95.34
23635;BME280;11994;51.038;16.974;2023-02-13T08:49:28;102186.02;;;7.06;95.34
23635;BME280;11994;51.038;16.974;2023-02-13T08:51:53;102186.58;;;7.07;95.48
23635;BME280;11994;51.038;16.974;2023-02-13T08:54:18;102184.67;;;7.08;95.62
23635;BME280;11994;51.038;16.974;2023-02-13T08:56:44;102186.13;;;7.10;95.70
23635;BME280;11994;51.038;16.974;2023-02-13T08:59:09;102185.27;;;7.11;95.78
23635;BME280;11994;51.038;16.974;2023-02-13T09:01:35;102189.31;;;7.12;95.94
23635;BME280;11994;51.038;16.974;2023-02-13T09:04:00;102186.03;;;7.14;95.92
23635;BME280;11994;51.038;16.974;2023-02-13T09:06:25;102186.90;;;7.14;96.24
23635;BME280;11994;51.038;16.974;2023-02-13T09:08:52;102188.46;;;7.14;96.26
23635;BME280;11994;51.038;16.974;2023-02-13T09:11:17;102187.66;;;7.16;96.45
23635;BME280;11994;51.038;16.974;2023-02-13T09:13:44;102190.80;;;7.17;96.58
23635;BME280;11994;51.038;16.974;2023-02-13T09:16:09;102195.23;;;7.21;96.75
23635;BME280;11994;51.038;16.974;2023-02-13T09:18:35;102195.29;;;7.23;96.95
23635;BME280;11994;51.038;16.974;2023-02-13T09:21:02;102200.52;;;7.24;96.87
23635;BME280;11994;51.038;16.974;2023-02-13T09:23:39;102206.09;;;7.24;97.01
23635;BME280;11994;51.038;16.974;2023-02-13T09:26:10;102201.59;;;7.25;96.95
23635;BME280;11994;51.038;16.974;2023-02-13T09:28:36;102207.52;;;7.25;96.94
23635;BME280;11994;51.038;16.974;2023-02-13T09:31:15;102207.84;;;7.24;96.91
23635;BME280;11994;51.038;16.974;2023-02-13T09:33:43;102208.65;;;7.21;97.41
23635;BME280;11994;51.038;16.974;2023-02-13T09:36:11;102215.84;;;7.16;97.28
23635;BME280;11994;51.038;16.974;2023-02-13T09:38:38;102219.41;;;7.13;97.13
23635;BME280;11994;51.038;16.974;2023-02-13T09:41:11;102224.06;;;7.11;97.04
23635;BME280;11994;51.038;16.974;2023-02-13T09:43:57;102230.50;;;7.04;97.15
23635;BME280;11994;51.038;16.974;2023-02-13T09:49:01;102231.40;;;6.97;96.79
23635;BME280;11994;51.038;16.974;2023-02-13T09:51:29;102231.80;;;7.00;96.69
23635;BME280;11994;51.038;16.974;2023-02-13T09:54:02;102235.65;;;7.00;96.44
23635;BME280;11994;51.038;16.974;2023-02-13T10:15:52;102236.61;;;6.97;96.07
23635;BME280;11994;51.038;16.974;2023-02-13T10:18:22;102239.13;;;7.00;96.12
23635;BME280;11994;51.038;16.974;2023-02-13T10:20:55;102237.27;;;7.03;95.88
23635;BME280;11994;51.038;16.974;2023-02-13T10:23:32;102240.96;;;7.05;95.79
23635;BME280;11994;51.038;16.974;2023-02-13T10:26:01;102236.45;;;7.05;95.70
23635;BME280;11994;51.038;16.974;2023-02-13T10:28:37;102235.23;;;7.05;95.49
23635;BME280;11994;51.038;16.974;2023-02-13T10:31:09;102233.52;;;7.13;95.87
23635;BME280;11994;51.038;16.974;2023-02-13T10:33:52;102233.41;;;7.23;95.55
23635;BME280;11994;51.038;16.974;2023-02-13T10:36:26;102230.95;;;7.31;95.39
23635;BME280;11994;51.038;16.974;2023-02-13T10:39:01;102236.09;;;7.34;94.90
23635;BME280;11994;51.038;16.974;2023-02-13T10:41:55;102229.29;;;7.33;94.27
23635;BME280;11994;51.038;16.974;2023-02-13T11:03:38;102209.26;;;7.48;92.21
23635;BME280;11994;51.038;16.974;2023-02-13T11:06:10;102205.13;;;7.51;92.07
23635;BME280;11994;51.038;16.974;2023-02-13T11:08:40;102204.30;;;7.53;91.96
23635;BME280;11994;51.038;16.974;2023-02-13T11:11:36;102204.30;;;7.53;91.45
23635;BME280;11994;51.038;16.974;2023-02-13T11:16:48;102208.60;;;7.50;91.32
23635;BME280;11994;51.038;16.974;2023-02-13T11:21:47;102206.73;;;7.61;91.32
23635;BME280;11994;51.038;16.974;2023-02-13T11:24:22;102200.17;;;7.64;91.22
23635;BME280;11994;51.038;16.974;2023-02-13T11:26:56;102199.64;;;7.63;90.94
23635;BME280;11994;51.038;16.974;2023-02-13T11:29:30;102193.09;;;7.58;90.78
23635;BME280;11994;51.038;16.974;2023-02-13T11:34:39;102186.66;;;7.58;91.05
23635;BME280;11994;51.038;16.974;2023-02-13T11:39:36;102185.30;;;7.61;90.83
23635;BME280;11994;51.038;16.974;2023-02-13T11:42:02;102183.05;;;7.61;90.71
23635;BME280;11994;51.038;16.974;2023-02-13T11:44:29;102180.11;;;7.62;90.62
23635;BME280;11994;51.038;16.974;2023-02-13T11:46:57;102173.98;;;7.61;90.36
23635;BME280;11994;51.038;16.974;2023-02-13T11:49:25;102177.73;;;7.64;90.39
23635;BME280;11994;51.038;16.974;2023-02-13T11:51:54;102173.80;;;7.68;90.32
23635;BME280;11994;51.038;16.974;2023-02-13T11:56:54;102170.33;;;7.78;90.33
23635;BME280;11994;51.038;16.974;2023-02-13T11:59:24;102178.79;;;7.82;90.15
23635;BME280;11994;51.038;16.974;2023-02-13T12:02:14;102175.05;;;7.78;89.68
23635;BME280;11994;51.038;16.974;2023-02-13T12:04:40;102178.23;;;7.72;88.80
23635;BME280;11994;51.038;16.974;2023-02-13T12:07:20;102183.15;;;7.65;88.98
23635;BME280;11994;51.038;16.974;2023-02-13T12:09:52;102183.85;;;7.57;88.65
23635;BME280;11994;51.038;16.974;2023-02-13T12:12:26;102180.14;;;7.47;88.95
23635;BME280;11994;51.038;16.974;2023-02-13T12:14:54;102182.42;;;7.39;88.88
23635;BME280;11994;51.038;16.974;2023-02-13T12:17:22;102185.98;;;7.35;89.17
23635;BME280;11994;51.038;16.974;2023-02-13T12:19:51;102184.29;;;7.37;89.00
23635;BME280;11994;51.038;16.974;2023-02-13T12:22:54;102183.27;;;7.38;89.10
23635;BME280;11994;51.038;16.974;2023-02-13T12:28:14;102180.88;;;7.49;89.45
23635;BME280;11994;51.038;16.974;2023-02-13T12:36:18;102172.55;;;7.50;88.41
23635;BME280;11994;51.038;16.974;2023-02-13T12:41:40;102161.38;;;7.48;87.92
23635;BME280;11994;51.038;16.974;2023-02-13T12:47:20;102166.08;;;7.48;87.96
23635;BME280;11994;51.038;16.974;2023-02-13T12:50:16;102156.98;;;7.46;88.10
23635;BME280;11994;51.038;16.974;2023-02-13T12:53:38;102155.54;;;7.45;88.23
23635;BME280;11994;51.038;16.974;2023-02-13T13:00:51;102158.79;;;7.49;88.31
23635;BME280;11994;51.038;16.974;2023-02-13T13:14:34;102160.08;;;7.53;87.91
23635;BME280;11994;51.038;16.974;2023-02-13T13:22:09;102150.35;;;7.63;86.93
23635;BME280;11994;51.038;16.974;2023-02-13T13:24:41;102145.67;;;7.64;86.17
23635;BME280;11994;51.038;16.974;2023-02-13T13:27:35;102147.48;;;7.66;86.20
23635;BME280;11994;51.038;16.974;2023-02-13T13:30:23;102154.67;;;7.70;85.80
23635;BME280;11994;51.038;16.974;2023-02-13T13:32:55;102155.23;;;7.71;85.28
23635;BME280;11994;51.038;16.974;2023-02-13T13:35:24;102160.95;;;7.70;85.31
23635;BME280;11994;51.038;16.974;2023-02-13T13:37:54;102164.81;;;7.71;85.35
23635;BME280;11994;51.038;16.974;2023-02-13T13:40:37;102169.22;;;7.74;85.10
23635;BME280;11994;51.038;16.974;2023-02-13T13:45:57;102157.59;;;7.76;84.46
23635;BME280;11994;51.038;16.974;2023-02-13T13:48:35;102161.27;;;7.77;84.43
23635;BME280;11994;51.038;16.974;2023-02-13T13:51:08;102158.98;;;7.76;83.88
23635;BME280;11994;51.038;16.974;2023-02-13T13:56:25;102150.42;;;7.75;83.71
23635;BME280;11994;51.038;16.974;2023-02-13T13:58:50;102145.52;;;7.74;83.64
23635;BME280;11994;51.038;16.974;2023-02-13T14:01:18;102147.42;;;7.73;83.59
23635;BME280;11994;51.038;16.974;2023-02-13T14:03:57;102143.45;;;7.74;83.53
23635;BME280;11994;51.038;16.974;2023-02-13T14:09:05;102140.38;;;7.78;83.39
23635;BME280;11994;51.038;16.974;2023-02-13T14:11:33;102144.23;;;7.79;83.43
23635;BME280;11994;51.038;16.974;2023-02-13T14:13:59;102137.95;;;7.79;83.33
23635;BME280;11994;51.038;16.974;2023-02-13T14:16:45;102136.71;;;7.78;83.41
23635;BME280;11994;51.038;16.974;2023-02-13T14:19:39;102136.02;;;7.78;83.28
23635;BME280;11994;51.038;16.974;2023-02-13T14:24:57;102142.59;;;7.75;83.51
23635;BME280;11994;51.038;16.974;2023-02-13T14:27:27;102134.60;;;7.77;83.87
23635;BME280;11994;51.038;16.974;2023-02-13T14:29:54;102135.85;;;7.78;84.08
23635;BME280;11994;51.038;16.974;2023-02-13T14:32:30;102130.11;;;7.79;84.21
23635;BME280;11994;51.038;16.974;2023-02-13T14:35:01;102130.98;;;7.78;84.38
23635;BME280;11994;51.038;16.974;2023-02-13T14:42:36;102122.30;;;7.71;84.98
23635;BME280;11994;51.038;16.974;2023-02-13T14:45:04;102109.05;;;7.69;85.14
23635;BME280;11994;51.038;16.974;2023-02-13T14:47:45;102112.52;;;7.69;85.27
23635;BME280;11994;51.038;16.974;2023-02-13T14:50:22;102110.41;;;7.68;85.25
23635;BME280;11994;51.038;16.974;2023-02-13T14:52:50;102101.52;;;7.67;85.48
23635;BME280;11994;51.038;16.974;2023-02-13T14:55:28;102095.23;;;7.66;85.50
23635;BME280;11994;51.038;16.974;2023-02-13T14:58:06;102084.77;;;7.65;85.53
23635;BME280;11994;51.038;16.974;2023-02-13T15:00:45;102079.34;;;7.64;85.64
23635;BME280;11994;51.038;16.974;2023-02-13T15:05:49;102078.83;;;7.65;85.33
23635;BME280;11994;51.038;16.974;2023-02-13T15:08:21;102078.50;;;7.67;85.49
23635;BME280;11994;51.038;16.974;2023-02-13T15:10:51;102079.94;;;7.68;85.51
23635;BME280;11994;51.038;16.974;2023-02-13T15:15:46;102070.85;;;7.67;85.46
23635;BME280;11994;51.038;16.974;2023-02-13T15:18:27;102066.64;;;7.65;85.52
23635;BME280;11994;51.038;16.974;2023-02-13T15:20:55;102064.52;;;7.64;85.56
23635;BME280;11994;51.038;16.974;2023-02-13T15:23:31;102066.10;;;7.65;85.71
23635;BME280;11994;51.038;16.974;2023-02-13T15:25:59;102067.35;;;7.66;85.68
23635;BME280;11994;51.038;16.974;2023-02-13T15:28:25;102069.59;;;7.64;85.63
23635;BME280;11994;51.038;16.974;2023-02-13T15:31:21;102068.15;;;7.62;85.88
23635;BME280;11994;51.038;16.974;2023-02-13T15:33:49;102070.38;;;7.61;85.98